Flugplatz Dachau-Gröbenried

Für EDMD sind keine METAR/TAF Berichte vorhanden.
Es werden die Flugwettermeldungen vom Flugplatz Oberpfaffenhofen in 19 km Entfernung angezeigt.

Bericht für EDMO

vom 15.07. um 16:20 UTC

Wind 8 kt aus 320°

Sichtweite 10 km oder mehr

schwacher Regen

aufgebrochene Bewölkung in 3400 ft

aufgebrochene Bewölkung in 6000 ft

Temperatur 17.0°C

Taupunkt 13.0°C

Luftfeuchtigkeit 77%

Luftdruck 1015 hPa

EDMO 151620Z 32008KT 9999 -RA BKN034 BKN060 17/13 Q1015

Prognose für EDMO

vom 15.07. um 14:00 UTC

Zwischen 15:00 UTC und 17:00 UTC

Wind 8 kt aus 300°

Sichtweite 10 km oder mehr

gering bewölkt in 2500 ft


Zwischen 15:00 UTC und 19:00 UTC zeitweise mit einer Wahrscheinlichkeit von 30%

Code: TSRA

aufgebrochene Bewölkung in 2000 ft


Zwischen 17:00 und 19:00 UTC übergehend zu

Wind 6 kt aus 240°

Sichtweite 10 km oder mehr

gering bewölkt in 2500 ft


Zwischen 19:00 UTC und 22:00 UTC zeitweise mit einer Wahrscheinlichkeit von 30%

Regen

TAF EDMO 151400Z 1515/1524 30008KT 9999 FEW025 PROB30 TEMPO 1515/1519 TSRA BKN020CB BECMG 1517/1519 24006KT PROB30 TEMPO 1519/1522 RA
Impressum